Archiv-/Tagesdaten

--Timestamp---	Temp	Chill	HIndex	Humid	Dewpt	Wind	HiWind	WindDir	Rain	Barom	Solar	ET	UV
--------------	----	-----	------	-----	-----	----	------	-------	----	-----	-----	--	--
20080331 00:05	8.9	8.9	8.9	59	1.4	0	3	180	0.00	1009.688	0	0.000	0
20080331 00:10	8.9	8.9	8.9	59	1.3	0	2	180	0.00	1009.722	0	0.000	0
20080331 00:15	8.9	8.9	8.9	60	1.5	0	0	180	0.00	1009.655	0	0.000	0
20080331 00:20	8.9	8.9	8.9	60	1.5	0	3	180	0.00	1009.722	0	0.000	0
20080331 00:25	8.8	8.8	8.8	61	1.7	0	2	180	0.00	1009.688	0	0.000	0
20080331 00:30	8.7	8.7	8.7	61	1.6	0	2	180	0.00	1009.722	0	0.000	0
20080331 00:35	8.6	8.6	8.6	63	1.9	0	0	180	0.00	1009.790	0	0.000	0
20080331 00:40	8.4	8.4	8.4	63	1.8	0	2	180	0.00	1009.926	0	0.000	0
20080331 00:45	8.2	8.2	8.2	64	1.8	0	0	180	0.00	1009.892	0	0.000	0
20080331 00:50	8.1	8.1	8.1	65	1.9	0	3	180	0.00	1009.926	0	0.000	0
20080331 00:55	7.9	7.9	7.9	65	1.7	0	3	180	0.00	1009.959	0	0.000	0
20080331 01:00	7.7	7.7	7.7	66	1.8	2	5	180	0.00	1009.959	0	0.020	0
20080331 01:05	7.5	7.5	7.5	67	1.8	0	2	180	0.00	1009.858	0	0.000	0
20080331 01:10	7.3	7.3	7.3	68	1.8	0	0	180	0.00	1009.959	0	0.000	0
20080331 01:15	7.2	7.2	7.2	68	1.7	0	2	180	0.00	1009.926	0	0.000	0
20080331 01:20	7.1	7.1	7.1	69	1.8	0	2	180	0.00	1010.027	0	0.000	0
20080331 01:25	7.0	7.0	7.0	69	1.7	0	0	180	0.00	1010.061	0	0.000	0
20080331 01:30	6.9	6.9	6.9	69	1.6	0	0	180	0.00	1010.163	0	0.000	0
20080331 01:35	6.7	6.7	6.7	70	1.6	0	0	180	0.00	1010.264	0	0.000	0
20080331 01:40	6.6	6.6	6.6	71	1.7	0	2	180	0.00	1010.366	0	0.000	0
20080331 01:45	6.5	6.5	6.5	71	1.6	3	8	180	0.00	1010.400	0	0.000	0
20080331 01:50	6.4	6.4	6.4	71	1.6	2	5	202	0.00	1010.366	0	0.000	0
20080331 01:55	6.4	6.4	6.4	69	1.2	3	5	202	0.00	1010.366	0	0.000	0
20080331 02:00	6.6	6.6	6.6	67	0.9	2	5	202	0.00	1010.433	0	0.020	0
20080331 02:05	6.7	6.7	6.7	67	1.0	3	5	202	0.00	1010.569	0	0.000	0
20080331 02:10	6.7	6.7	6.7	68	1.2	2	5	202	0.00	1010.501	0	0.000	0
20080331 02:15	6.5	6.5	6.5	68	1.0	2	5	202	0.00	1010.433	0	0.000	0
20080331 02:20	6.4	6.4	6.4	68	0.9	3	5	202	0.00	1010.433	0	0.000	0
20080331 02:25	6.3	6.3	6.3	67	0.7	3	5	202	0.00	1010.467	0	0.000	0
20080331 02:30	6.3	6.3	6.3	66	0.4	3	6	202	0.00	1010.467	0	0.000	0
20080331 02:35	6.3	6.3	6.3	67	0.6	3	10	202	0.00	1010.603	0	0.000	0
20080331 02:40	6.2	6.2	6.2	67	0.5	5	10	202	0.00	1010.603	0	0.000	0
20080331 02:45	6.0	6.0	6.0	67	0.3	5	10	202	0.00	1010.671	0	0.000	0
20080331 02:50	6.0	6.0	6.0	67	0.3	3	8	202	0.00	1010.704	0	0.000	0
20080331 02:55	6.0	6.0	6.0	66	0.1	2	8	202	0.00	1010.738	0	0.000	0
20080331 03:00	5.9	5.9	5.9	66	0.1	2	5	202	0.00	1010.704	0	0.020	0
20080331 03:05	5.9	5.9	5.9	66	0.0	3	6	202	0.00	1010.637	0	0.000	0
20080331 03:10	5.9	5.9	5.9	65	-0.1	3	8	202	0.00	1010.603	0	0.000	0
20080331 03:15	6.0	6.0	6.0	64	-0.3	5	10	202	0.00	1010.535	0	0.000	0
20080331 03:20	5.9	5.9	5.9	64	-0.3	3	8	202	0.00	1010.603	0	0.000	0
20080331 03:25	5.8	5.8	5.8	64	-0.4	3	8	202	0.00	1010.671	0	0.000	0
20080331 03:30	5.7	5.7	5.7	65	-0.3	3	6	202	0.00	1010.738	0	0.000	0
20080331 03:35	5.7	5.7	5.7	65	-0.4	2	6	202	0.00	1010.738	0	0.000	0
20080331 03:40	5.7	5.7	5.7	66	-0.2	0	5	202	0.00	1010.772	0	0.000	0
20080331 03:45	5.7	5.7	5.7	65	-0.4	0	5	202	0.00	1010.806	0	0.000	0
20080331 03:50	5.7	5.7	5.7	65	-0.4	2	3	180	0.00	1010.772	0	0.000	0
20080331 03:55	5.7	5.7	5.7	65	-0.4	0	3	180	0.00	1010.738	0	0.000	0
20080331 04:00	5.8	5.8	5.8	65	-0.3	2	5	180	0.00	1010.806	0	0.020	0
20080331 04:05	5.9	5.9	5.9	64	-0.4	2	6	180	0.00	1010.671	0	0.000	0
20080331 04:10	6.0	6.0	6.0	64	-0.3	2	8	180	0.00	1010.637	0	0.000	0
20080331 04:15	6.1	6.1	6.1	63	-0.4	2	5	180	0.00	1010.569	0	0.000	0
20080331 04:20	6.2	6.2	6.2	63	-0.3	2	3	180	0.00	1010.603	0	0.000	0
20080331 04:25	6.2	6.2	6.2	62	-0.6	2	6	180	0.00	1010.671	0	0.000	0
20080331 04:30	6.1	6.1	6.1	63	-0.5	2	5	157	0.00	1010.874	0	0.000	0
20080331 04:35	5.9	5.9	5.9	64	-0.4	2	6	180	0.00	1011.009	0	0.000	0
20080331 04:40	5.8	5.8	5.8	64	-0.4	2	6	157	0.00	1011.111	0	0.000	0
20080331 04:45	5.9	5.9	5.9	62	-0.8	2	6	180	0.00	1011.246	0	0.000	0
20080331 04:50	6.1	6.1	6.1	61	-0.9	2	6	180	0.00	1011.348	0	0.000	0
20080331 04:55	6.2	6.2	6.2	61	-0.7	5	8	180	0.00	1011.382	0	0.000	0
20080331 05:00	6.2	5.0	6.2	61	-0.7	6	8	202	0.00	1011.449	0	0.020	0
20080331 05:05	6.2	6.2	6.2	61	-0.8	3	10	202	0.00	1011.653	0	0.000	0
20080331 05:10	6.2	6.2	6.2	61	-0.8	5	10	202	0.00	1011.653	0	0.000	0
20080331 05:20	6.2	6.2	6.2	61	-0.8	2	10	202	0.00	1011.686	0	0.000	0
20080331 05:25	6.2	6.2	6.2	61	-0.7	5	8	180	0.00	1011.686	0	0.000	0
20080331 05:30	6.2	6.2	6.2	61	-0.8	5	8	202	0.00	1011.754	0	0.000	0
20080331 05:35	6.2	6.2	6.2	60	-1.0	2	8	202	0.00	1011.754	0	0.000	0
20080331 05:40	6.1	6.1	6.1	61	-0.9	3	8	202	0.00	1011.720	0	0.000	0
20080331 05:45	5.9	5.9	5.9	62	-0.8	3	6	202	0.00	1011.788	0	0.000	0
20080331 05:50	5.9	5.9	5.9	61	-1.1	5	6	202	0.00	1011.754	0	0.000	0
20080331 05:55	6.0	6.0	6.0	61	-0.9	3	6	202	0.00	1011.924	0	0.000	0
20080331 06:00	6.0	6.0	6.0	61	-0.9	5	8	202	0.00	1011.991	0	0.020	0
20080331 06:05	5.9	5.9	5.9	61	-1.0	2	5	202	0.00	1012.262	0	0.000	0
20080331 06:10	5.9	5.9	5.9	62	-0.8	0	2	202	0.00	1012.296	0	0.000	0
20080331 06:15	5.8	5.8	5.8	62	-0.9	0	2	202	0.00	1012.330	0	0.000	0
20080331 06:20	5.7	5.7	5.7	62	-1.0	0	2	202	0.00	1012.398	0	0.000	0
20080331 06:25	5.6	5.6	5.6	62	-1.1	0	3	202	0.00	1012.499	0	0.000	0
20080331 06:30	5.6	5.6	5.6	63	-0.9	0	3	202	0.00	1012.499	0	0.000	0
20080331 06:35	5.6	5.6	5.6	63	-0.9	0	3	202	0.00	1012.601	0	0.000	0
20080331 06:40	5.4	5.4	5.4	63	-1.0	5	8	202	0.00	1012.669	0	0.000	0
20080331 06:45	5.4	5.4	5.4	63	-1.1	3	8	202	0.00	1012.770	0	0.000	0
20080331 06:50	5.3	5.3	5.3	63	-1.1	3	8	202	0.00	1012.838	0	0.000	0
20080331 06:55	5.3	5.3	5.3	63	-1.2	3	5	202	0.00	1012.939	2	0.000	0
20080331 07:00	5.3	5.3	5.3	64	-1.0	2	5	202	0.00	1013.007	7	0.000	0
20080331 07:05	5.3	5.3	5.3	64	-1.0	2	5	202	0.00	1013.278	12	0.000	0
20080331 07:10	5.3	5.3	5.3	64	-1.0	3	5	202	0.00	1013.312	16	0.000	0
20080331 07:15	5.2	5.2	5.2	64	-1.0	2	6	202	0.00	1013.481	19	0.000	0
20080331 07:20	5.2	5.2	5.2	64	-1.0	2	6	202	0.00	1013.515	21	0.000	0
20080331 07:25	5.3	5.3	5.3	64	-0.9	2	3	202	0.00	1013.380	24	0.000	0
20080331 07:30	5.3	5.3	5.3	64	-0.9	2	5	202	0.00	1013.481	27	0.000	0
20080331 07:35	5.4	5.4	5.4	64	-0.9	2	2	202	0.00	1013.515	29	0.000	0
20080331 07:40	5.4	5.4	5.4	64	-0.8	2	5	202	0.00	1013.684	32	0.000	0
20080331 07:45	5.4	5.4	5.4	64	-0.8	3	5	202	0.00	1013.786	35	0.000	0
20080331 07:50	5.5	5.5	5.5	64	-0.8	2	5	202	0.00	1013.820	39	0.000	0
20080331 07:55	5.5	5.5	5.5	64	-0.8	2	3	202	0.00	1013.854	42	0.000	0
20080331 08:00	5.5	5.5	5.5	65	-0.6	0	2	202	0.00	1013.922	47	0.020	0
20080331 08:05	5.5	5.5	5.5	65	-0.6	0	2	202	0.00	1014.226	50	0.000	0
20080331 08:10	5.6	5.6	5.6	65	-0.5	2	5	202	0.00	1014.226	56	0.000	0
20080331 08:15	5.6	5.6	5.6	65	-0.4	2	5	202	0.00	1014.294	58	0.000	0
20080331 08:20	5.7	5.7	5.7	65	-0.3	2	5	202	0.00	1014.328	73	0.000	0
20080331 08:25	5.8	5.8	5.8	65	-0.2	2	6	202	0.00	1014.226	68	0.000	0
20080331 08:30	5.9	5.9	5.9	66	0.1	2	3	202	0.00	1014.294	76	0.000	0
20080331 08:35	6.1	6.1	6.1	66	0.2	0	5	202	0.00	1014.362	61	0.000	0
20080331 08:40	6.3	6.3	6.3	66	0.5	2	5	202	0.00	1014.429	62	0.000	0
20080331 08:45	6.6	6.6	6.6	66	0.7	2	5	202	0.00	1014.497	65	0.000	0
20080331 08:50	6.8	6.8	6.8	68	1.3	2	5	202	0.00	1014.497	64	0.000	0
20080331 08:55	7.1	7.1	7.1	67	1.3	2	6	202	0.00	1014.463	68	0.000	0
20080331 09:00	7.2	7.2	7.2	66	1.3	2	8	202	0.00	1014.531	70	0.020	1
20080331 09:05	7.6	6.6	7.6	66	1.7	6	10	270	0.00	1014.700	76	0.000	1
20080331 09:10	8.1	6.5	8.1	63	1.5	10	24	292	0.00	1014.836	79	0.000	1
20080331 09:15	8.6	7.3	8.6	62	1.7	8	16	270	0.00	1014.870	79	0.000	1
20080331 09:20	8.8	7.0	8.8	61	1.7	11	21	270	0.00	1014.802	77	0.000	1
20080331 09:25	9.0	7.5	9.0	61	1.9	10	24	270	0.00	1014.870	79	0.000	1
20080331 09:30	9.2	7.7	9.2	62	2.3	10	21	270	0.00	1014.904	79	0.000	1
20080331 09:35	9.3	8.2	9.3	64	2.8	8	18	292	0.00	1014.904	82	0.000	1
20080331 09:40	9.3	6.7	9.3	65	3.0	18	27	315	0.00	1015.039	91	0.000	1
20080331 09:45	9.2	7.0	9.2	66	3.1	14	27	315	0.00	1015.073	82	0.000	1
20080331 09:50	9.1	6.6	9.1	66	3.0	16	24	315	0.00	1015.174	85	0.000	1
20080331 09:55	9.1	7.1	9.1	67	3.3	13	21	292	0.00	1015.174	90	0.000	1
20080331 10:00	9.2	7.5	9.2	66	3.2	11	19	315	0.00	1015.174	91	0.060	1
20080331 10:05	9.4	7.5	9.4	66	3.4	13	23	315	0.00	1015.378	92	0.000	1
20080331 10:10	9.6	7.9	9.6	67	3.7	11	23	315	0.00	1015.344	92	0.000	1
20080331 10:15	9.8	8.4	9.8	65	3.5	10	23	292	0.00	1015.411	102	0.000	1
20080331 10:20	9.9	8.9	9.9	66	3.8	8	23	315	0.00	1015.378	112	0.000	2
20080331 10:25	10.1	10.1	10.1	66	4.0	6	18	315	0.00	1015.445	156	0.000	2
20080331 10:30	10.3	10.3	10.3	66	4.3	5	14	315	0.00	1015.344	175	0.000	2
20080331 10:35	10.5	10.5	10.5	65	4.2	8	19	292	0.00	1015.344	165	0.000	2
20080331 10:40	10.6	10.6	10.6	66	4.5	6	19	292	0.00	1015.344	154	0.000	2
20080331 10:45	10.8	10.8	10.8	65	4.5	5	18	315	0.00	1015.411	176	0.000	2
20080331 10:50	10.8	10.8	10.8	64	4.3	10	19	315	0.00	1015.411	184	0.000	2
20080331 10:55	10.8	10.8	10.8	66	4.7	8	21	315	0.00	1015.411	196	0.000	2
20080331 11:00	11.1	11.1	11.1	65	4.7	6	18	315	0.00	1015.445	220	0.080	2
20080331 11:05	11.1	11.1	11.1	65	4.7	11	24	315	0.00	1015.411	189	0.000	2
20080331 11:10	11.1	11.1	11.1	64	4.5	13	26	292	0.00	1015.445	164	0.000	2
20080331 11:15	10.8	10.8	10.8	64	4.3	11	23	292	0.00	1015.445	155	0.000	2
20080331 11:20	10.7	10.7	10.7	65	4.4	10	19	315	0.00	1015.682	336	0.000	2
20080331 11:25	10.7	10.7	10.7	65	4.4	10	19	292	0.00	1015.615	542	0.000	3
20080331 11:30	10.9	10.9	10.9	66	4.8	8	19	292	0.00	1015.479	562	0.000	3
20080331 11:35	11.1	11.1	11.1	63	4.3	6	23	0	0.00	1015.547	517	0.000	3
20080331 11:40	11.3	11.3	11.3	64	4.8	8	21	292	0.00	1015.547	619	0.000	3
20080331 11:45	11.6	11.6	11.6	62	4.5	8	19	315	0.00	1015.479	583	0.000	3
20080331 11:50	11.7	11.7	11.7	61	4.4	10	19	315	0.00	1015.479	555	0.000	3
20080331 11:55	11.8	11.8	11.8	62	4.7	8	21	315	0.00	1015.513	650	0.000	4
20080331 12:00	12.1	12.1	12.1	61	4.8	8	21	315	0.00	1015.344	647	0.200	4
20080331 12:05	12.2	12.2	12.2	60	4.6	3	11	315	0.00	1015.411	643	0.000	4
20080331 12:10	12.3	12.3	12.3	58	4.3	8	19	315	0.00	1015.479	635	0.000	4
20080331 12:15	12.3	12.3	12.3	60	4.7	6	14	315	0.00	1015.445	600	0.000	4
20080331 12:20	12.4	12.4	12.4	60	4.9	6	11	292	0.00	1015.411	656	0.000	4
20080331 12:25	12.6	12.6	12.6	60	5.0	5	13	292	0.00	1015.411	650	0.000	4
20080331 12:30	12.6	12.6	12.6	59	4.8	6	18	315	0.00	1015.378	603	0.000	4
20080331 12:35	12.4	12.4	12.4	59	4.6	3	10	337	0.00	1015.411	222	0.000	3
20080331 12:40	12.2	12.2	12.2	61	4.9	3	8	315	0.00	1015.411	340	0.000	3
20080331 12:45	12.3	12.3	12.3	60	4.7	5	14	315	0.00	1015.445	335	0.000	3
20080331 12:50	12.4	12.4	12.4	62	5.3	8	19	292	0.00	1015.445	435	0.000	4
20080331 12:55	12.6	12.6	12.6	59	4.8	8	16	315	0.00	1015.411	380	0.000	3
20080331 13:00	12.7	12.7	12.7	59	4.9	6	19	315	0.00	1015.479	356	0.220	3
20080331 13:05	12.7	12.7	12.7	59	4.9	5	11	292	0.00	1015.547	529	0.000	4
20080331 13:10	12.8	12.8	12.8	61	5.5	3	10	292	0.00	1015.513	632	0.000	4
20080331 13:15	13.2	13.2	13.2	59	5.3	8	21	292	0.00	1015.411	671	0.000	4
20080331 13:20	13.3	13.3	13.3	58	5.2	11	23	315	0.00	1015.378	734	0.000	4
20080331 13:25	13.5	13.5	13.5	58	5.4	6	16	315	0.00	1015.344	698	0.000	4
20080331 13:30	13.6	13.6	13.6	56	4.9	5	11	337	0.00	1015.310	700	0.000	4
20080331 13:35	13.8	13.8	13.8	56	5.2	5	11	270	0.00	1015.310	701	0.000	4
20080331 13:40	14.0	14.0	14.0	55	5.1	6	16	292	0.00	1015.378	694	0.000	4
20080331 13:45	14.0	14.0	14.0	55	5.1	5	10	292	0.00	1015.344	707	0.000	4
20080331 13:50	14.1	14.1	14.1	55	5.2	11	26	292	0.00	1015.344	755	0.000	4
20080331 13:55	14.2	14.2	14.2	54	5.0	6	16	292	0.00	1015.378	755	0.000	4
20080331 14:00	14.3	14.3	14.3	53	4.9	6	14	292	0.00	1015.208	424	0.300	4
20080331 14:05	14.4	14.4	14.4	55	5.5	6	14	315	0.00	1015.310	424	0.000	4
20080331 14:10	14.4	14.4	14.4	53	4.9	3	10	292	0.00	1015.276	492	0.000	4
20080331 14:15	14.4	14.4	14.4	54	5.2	6	16	292	0.00	1015.208	795	0.000	4
20080331 14:20	14.5	14.5	14.5	53	5.0	8	19	315	0.00	1015.242	690	0.000	4
20080331 14:25	14.4	14.4	14.4	52	4.7	5	18	292	0.00	1015.310	208	0.000	3
20080331 14:30	14.2	14.2	14.2	52	4.5	5	10	315	0.00	1015.310	367	0.000	3
20080331 14:35	14.2	14.2	14.2	52	4.5	13	26	315	0.00	1015.344	606	0.000	4
20080331 14:40	14.1	14.1	14.1	53	4.6	10	21	315	0.00	1015.344	312	0.000	3
20080331 14:45	13.9	13.9	13.9	54	4.8	6	16	315	0.00	1015.378	165	0.000	2
20080331 14:50	13.9	13.9	13.9	54	4.8	6	19	292	0.00	1015.310	547	0.000	3
20080331 14:55	14.3	14.3	14.3	52	4.6	8	21	315	0.00	1015.242	694	0.000	4
20080331 15:00	14.6	14.6	14.6	53	5.1	5	14	315	0.00	1015.344	650	0.240	3
20080331 15:05	14.6	14.6	14.6	51	4.5	10	21	292	0.00	1015.344	547	0.000	3
20080331 15:10	14.7	14.7	14.7	52	5.0	8	21	292	0.00	1015.208	645	0.000	3
20080331 15:15	15.0	15.0	15.0	51	4.9	11	23	270	0.00	1015.208	701	0.000	3
20080331 15:20	15.2	15.2	15.2	50	4.8	8	18	292	0.00	1015.107	716	0.000	3
20080331 15:25	15.2	15.2	15.2	48	4.2	10	21	270	0.00	1015.174	434	0.000	3
20080331 15:30	15.0	15.0	15.0	49	4.4	8	19	315	0.00	1015.174	430	0.000	3
20080331 15:35	15.0	15.0	15.0	51	4.9	11	24	292	0.00	1015.242	351	0.000	2
20080331 15:40	14.7	14.7	14.7	52	5.0	10	18	315	0.00	1015.310	303	0.000	2
20080331 15:45	14.6	14.6	14.6	53	5.1	6	16	315	0.00	1015.310	273	0.000	2
20080331 15:50	14.4	14.4	14.4	53	5.0	6	16	292	0.00	1015.344	273	0.000	2
20080331 15:55	14.3	14.3	14.3	52	4.6	6	16	315	0.00	1015.411	262	0.000	2
20080331 16:00	14.2	14.2	14.2	53	4.8	13	26	315	0.00	1015.411	358	0.240	2
20080331 16:05	14.3	14.3	14.3	53	4.9	14	26	315	0.00	1015.378	393	0.000	2
20080331 16:10	14.3	14.3	14.3	54	5.1	14	27	315	0.00	1015.411	295	0.000	2
20080331 16:15	14.2	14.2	14.2	54	5.0	11	21	292	0.00	1015.411	278	0.000	2
20080331 16:20	14.2	14.2	14.2	54	5.0	6	14	292	0.00	1015.411	262	0.000	1
20080331 16:25	14.2	14.2	14.2	53	4.7	11	24	292	0.00	1015.513	277	0.000	1
20080331 16:30	14.2	14.2	14.2	55	5.3	6	13	315	0.00	1015.513	335	0.000	2
20080331 16:35	14.3	14.3	14.3	55	5.4	5	11	315	0.00	1015.547	320	0.000	1
20080331 16:40	14.5	14.5	14.5	53	5.0	10	21	315	0.00	1015.513	319	0.000	1
20080331 16:45	14.3	14.3	14.3	53	4.9	14	26	292	0.00	1015.581	249	0.000	1
20080331 16:50	14.2	14.2	14.2	54	5.0	10	23	315	0.00	1015.547	247	0.000	1
20080331 16:55	14.1	14.1	14.1	54	4.9	16	26	292	0.00	1015.649	223	0.000	1
20080331 17:00	13.9	13.9	13.9	54	4.8	18	27	315	0.00	1015.716	207	0.160	1
20080331 17:05	13.8	13.8	13.8	55	4.9	13	21	292	0.00	1015.716	190	0.000	1
20080331 17:10	13.9	13.9	13.9	54	4.7	13	27	315	0.00	1015.784	217	0.000	1
20080331 17:15	13.9	13.9	13.9	55	5.0	13	23	315	0.00	1015.818	177	0.000	1
20080331 17:20	13.8	13.8	13.8	55	4.9	11	23	315	0.00	1015.818	169	0.000	1
20080331 17:25	13.7	13.7	13.7	56	5.1	10	19	292	0.00	1015.852	181	0.000	1
20080331 17:30	13.5	13.5	13.5	56	4.9	14	23	315	0.00	1016.021	156	0.000	1
20080331 17:35	13.3	13.3	13.3	58	5.2	16	31	315	0.00	1016.021	166	0.000	1
20080331 17:40	13.3	13.3	13.3	58	5.2	16	29	315	0.00	1016.190	216	0.000	1
20080331 17:45	13.4	13.4	13.4	57	5.0	6	23	315	0.00	1016.258	171	0.000	0
20080331 17:50	13.3	13.3	13.3	57	5.0	8	21	315	0.00	1016.292	186	0.000	0
20080331 17:55	13.2	13.2	13.2	59	5.4	10	21	292	0.00	1016.394	161	0.000	0
20080331 18:00	13.2	13.2	13.2	59	5.3	5	14	315	0.00	1016.427	174	0.120	0
20080331 18:05	13.1	13.1	13.1	58	5.0	6	14	292	0.00	1016.427	187	0.000	0
20080331 18:10	13.0	13.0	13.0	59	5.2	5	13	315	0.00	1016.597	162	0.000	0
20080331 18:15	12.9	12.9	12.9	58	4.9	8	16	315	0.00	1016.664	154	0.000	0
20080331 18:20	12.8	12.8	12.8	58	4.8	13	21	315	0.00	1016.698	84	0.000	0
20080331 18:25	12.6	12.6	12.6	60	5.0	6	14	315	0.00	1016.732	70	0.000	0
20080331 18:30	12.3	12.3	12.3	60	4.8	8	19	315	0.00	1016.834	67	0.000	0
20080331 18:35	12.2	12.2	12.2	60	4.6	10	21	315	0.00	1016.834	60	0.000	0
20080331 18:40	12.0	12.0	12.0	61	4.7	8	16	292	0.00	1016.935	54	0.000	0
20080331 18:45	11.9	11.9	11.9	62	4.8	8	18	315	0.00	1017.071	45	0.000	0
20080331 18:50	11.8	11.8	11.8	62	4.7	6	21	315	0.00	1017.172	37	0.000	0
20080331 18:55	11.7	11.7	11.7	63	4.9	6	19	315	0.00	1017.206	25	0.000	0
20080331 19:00	11.6	11.6	11.6	63	4.8	6	19	315	0.00	1017.274	15	0.060	0
20080331 19:05	11.4	11.4	11.4	63	4.6	8	18	315	0.00	1017.342	12	0.000	0
20080331 19:10	11.3	11.3	11.3	64	4.8	8	18	315	0.00	1017.443	11	0.000	0
20080331 19:15	11.2	11.2	11.2	64	4.7	10	19	315	0.00	1017.511	9	0.000	0
20080331 19:20	11.1	11.1	11.1	64	4.6	8	14	315	0.00	1017.545	7	0.000	0
20080331 19:25	11.0	11.0	11.0	64	4.5	8	18	315	0.00	1017.680	4	0.000	0
20080331 19:30	10.9	10.9	10.9	65	4.6	6	11	315	0.00	1017.782	0	0.000	0
20080331 19:35	10.8	10.8	10.8	65	4.5	8	11	315	0.00	1017.816	0	0.000	0
20080331 19:40	10.7	10.7	10.7	65	4.4	8	16	315	0.00	1018.019	0	0.000	0
20080331 19:45	10.7	10.7	10.7	66	4.6	8	16	315	0.00	1018.087	0	0.000	0
20080331 19:50	10.6	10.6	10.6	66	4.5	8	11	315	0.00	1018.188	0	0.000	0
20080331 19:55	10.5	10.5	10.5	67	4.6	11	19	315	0.00	1018.256	0	0.000	0
20080331 20:00	10.4	10.4	10.4	67	4.5	11	19	315	0.00	1018.324	0	0.040	0
20080331 20:05	10.3	10.3	10.3	67	4.4	11	18	315	0.00	1018.154	0	0.000	0
20080331 20:10	10.2	10.2	10.2	68	4.6	10	16	292	0.00	1018.392	0	0.000	0
20080331 20:15	10.2	10.2	10.2	68	4.5	8	14	315	0.00	1018.425	0	0.000	0
20080331 20:20	10.1	10.1	10.1	68	4.5	8	14	315	0.00	1018.561	0	0.000	0
20080331 20:25	10.1	10.1	10.1	68	4.4	10	19	292	0.00	1018.662	0	0.000	0
20080331 20:30	10.0	10.0	10.0	68	4.4	8	14	292	0.00	1018.798	0	0.000	0
20080331 20:35	9.9	8.9	9.9	69	4.5	8	14	315	0.00	1018.866	0	0.000	0
20080331 20:40	9.9	8.9	9.9	69	4.5	8	18	315	0.00	1018.933	0	0.000	0
20080331 20:45	9.8	9.2	9.8	69	4.4	6	11	292	0.00	1018.967	0	0.000	0
20080331 20:50	9.8	8.7	9.8	69	4.4	8	14	315	0.00	1019.069	0	0.000	0
20080331 20:55	9.7	8.4	9.7	69	4.3	10	16	315	0.00	1019.069	0	0.000	0
20080331 21:00	9.7	8.6	9.7	69	4.3	8	14	315	0.00	1019.103	0	0.040	0
20080331 21:05	9.6	8.6	9.6	69	4.2	8	14	292	0.00	1018.967	0	0.000	0
20080331 21:10	9.6	8.5	9.6	69	4.1	8	16	292	0.00	1019.069	0	0.000	0
20080331 21:15	9.6	8.9	9.6	70	4.4	6	11	315	0.00	1019.103	0	0.000	0
20080331 21:20	9.5	8.4	9.5	70	4.3	8	14	315	0.00	1019.103	0	0.000	0
20080331 21:25	9.5	8.4	9.5	70	4.3	8	14	315	0.00	1019.238	0	0.000	0
20080331 21:30	9.4	8.4	9.4	70	4.2	8	14	292	0.00	1019.272	0	0.000	0
20080331 21:35	9.4	8.7	9.4	70	4.2	6	14	315	0.00	1019.374	0	0.000	0
20080331 21:40	9.3	8.2	9.3	70	4.1	8	14	292	0.00	1019.475	0	0.000	0
20080331 21:45	9.3	8.2	9.3	71	4.3	8	11	315	0.00	1019.475	0	0.000	0
20080331 21:50	9.2	8.5	9.2	71	4.2	6	11	292	0.00	1019.475	0	0.000	0
20080331 21:55	9.2	8.4	9.2	71	4.2	6	11	315	0.00	1019.645	0	0.000	0
20080331 22:00	9.1	8.3	9.1	71	4.1	6	11	315	0.00	1019.746	0	0.020	0
20080331 22:05	9.1	7.9	9.1	71	4.1	8	13	315	0.00	1019.509	0	0.000	0
20080331 22:10	9.1	7.9	9.1	71	4.1	8	16	315	0.00	1019.611	0	0.000	0
20080331 22:15	9.0	7.8	9.0	71	4.0	8	14	292	0.00	1019.678	0	0.000	0
20080331 22:20	9.0	9.0	9.0	71	4.0	5	11	292	0.00	1019.712	0	0.000	0
20080331 22:25	9.0	9.0	9.0	72	4.2	5	14	292	0.00	1019.780	0	0.000	0
20080331 22:30	9.0	9.0	9.0	72	4.2	5	10	292	0.00	1019.814	0	0.000	0
20080331 22:35	8.9	8.2	8.9	72	4.2	6	10	292	0.00	1019.848	0	0.000	0
20080331 22:40	8.9	7.8	8.9	72	4.2	8	11	315	0.00	1019.814	0	0.000	0
20080331 22:45	8.9	8.9	8.9	72	4.2	5	11	315	0.00	1019.780	0	0.000	0
20080331 22:50	8.9	8.9	8.9	72	4.1	3	6	292	0.00	1019.848	0	0.000	0
20080331 22:55	8.9	8.9	8.9	72	4.1	3	6	292	0.00	1019.882	0	0.000	0
20080331 23:00	8.8	8.8	8.8	73	4.3	3	6	292	0.00	1019.949	0	0.020	0
20080331 23:05	8.8	8.8	8.8	73	4.3	5	6	270	0.00	1019.780	0	0.000	0
20080331 23:10	8.8	8.8	8.8	73	4.2	5	8	270	0.00	1019.712	0	0.000	0
20080331 23:15	8.8	8.8	8.8	73	4.2	3	8	270	0.00	1019.678	0	0.000	0
20080331 23:20	8.7	8.7	8.7	73	4.2	5	10	270	0.00	1019.678	0	0.000	0
20080331 23:25	8.7	8.7	8.7	73	4.2	5	10	292	0.00	1019.814	0	0.000	0
20080331 23:30	8.7	8.7	8.7	74	4.3	3	6	270	0.00	1019.814	0	0.000	0
20080331 23:35	8.7	8.7	8.7	74	4.3	5	8	270	0.00	1019.882	0	0.000	0
20080331 23:40	8.7	8.7	8.7	74	4.3	5	8	270	0.00	1019.780	0	0.000	0
20080331 23:45	8.6	8.6	8.6	74	4.2	3	6	292	0.00	1019.848	0	0.000	0
20080331 23:50	8.6	8.6	8.6	74	4.2	5	10	270	0.00	1019.882	0	0.000	0
20080331 23:55	8.6	8.6	8.6	74	4.2	3	6	270	0.00	1019.915	0	0.000	0
20080331 24:00	8.6	8.6	8.6	74	4.2	5	8	270	0.00	1020.119	0	0.020	0



Please note the license to use and transfer of this data:
http://creativecommons.org/licenses/by-nc-sa/3.0/deed.en

Bitte beachten sie die Lizenz zur Verwertung und Weitergabe der Daten:
http://creativecommons.org/licenses/by-nc-sa/3.0/deed.de

zurück zur Übersicht der Archivdaten (Monats und Tagesdaten)

Cookies helfen bei der Bereitstellung von Inhalten. Durch die Nutzung dieser Seiten erklärst du dich damit einverstanden, dass Cookies auf deinem Rechner gespeichert werden. Weitere Information